Terminal Aerodrome Forecast
Issued by NWS

Home | Current Version | Previous Version | Text Only | Print | Product List | Glossary On
Versions: 1 2 3 4 5 6 7 8 9 10 11 12 13 14 15 16 17 18 19 20 21 22 23
649
FTUS45 KTFX 040006 AAA
TAFHVR
TAF AMD
KHVR 040006Z 0400/0424 28009KT P6SM SCT080
     FM042100 30012KT P6SM OVC060 PROB30 0422/0424 4SM -SN OVC035=

USA.gov is the U.S. government's official web portal to all federal, state and local government web resources and services.